sensor_id;sensor_type;location;lat;lon;timestamp;noise_LAeq;noise_LA_min;noise_LA_max;noise_LA01;noise_LA95
66747;Laerm;53658;50.742;10.864;2023-05-02T00:00:38;38.63;34.69;41.06;;
66747;Laerm;53658;50.742;10.864;2023-05-02T00:03:04;38.66;35.04;41.14;;
66747;Laerm;53658;50.742;10.864;2023-05-02T00:05:30;38.65;35.59;42.98;;
66747;Laerm;53658;50.742;10.864;2023-05-02T00:07:56;38.72;34.69;43.77;;
66747;Laerm;53658;50.742;10.864;2023-05-02T00:10:22;38.73;35.36;41.61;;
66747;Laerm;53658;50.742;10.864;2023-05-02T00:12:48;38.75;35.36;42.09;;
66747;Laerm;53658;50.742;10.864;2023-05-02T00:15:14;38.69;35.36;41.14;;
66747;Laerm;53658;50.742;10.864;2023-05-02T00:17:40;38.65;35.04;40.98;;
66747;Laerm;53658;50.742;10.864;2023-05-02T00:20:08;38.72;35.04;48.23;;
66747;Laerm;53658;50.742;10.864;2023-05-02T00:22:35;38.66;35.36;41.14;;
66747;Laerm;53658;50.742;10.864;2023-05-02T00:25:01;38.67;35.36;41.30;;
66747;Laerm;53658;50.742;10.864;2023-05-02T00:27:28;38.63;35.04;40.89;;
66747;Laerm;53658;50.742;10.864;2023-05-02T00:29:55;38.62;35.04;41.38;;
66747;Laerm;53658;50.742;10.864;2023-05-02T00:32:21;38.57;35.04;46.45;;
66747;Laerm;53658;50.742;10.864;2023-05-02T00:34:47;38.58;34.69;41.22;;
66747;Laerm;53658;50.742;10.864;2023-05-02T00:37:12;38.65;35.04;43.49;;
66747;Laerm;53658;50.742;10.864;2023-05-02T00:39:38;38.62;35.04;41.22;;
66747;Laerm;53658;50.742;10.864;2023-05-02T00:42:04;38.62;35.66;40.98;;
66747;Laerm;53658;50.742;10.864;2023-05-02T00:44:31;38.64;35.04;41.22;;
66747;Laerm;53658;50.742;10.864;2023-05-02T00:46:57;38.59;35.04;44.69;;
66747;Laerm;53658;50.742;10.864;2023-05-02T00:49:25;38.60;34.69;47.30;;
66747;Laerm;53658;50.742;10.864;2023-05-02T00:51:52;38.61;35.31;41.22;;
66747;Laerm;53658;50.742;10.864;2023-05-02T00:54:18;38.82;35.66;52.62;;
66747;Laerm;53658;50.742;10.864;2023-05-02T00:56:44;38.74;35.36;54.78;;
66747;Laerm;53658;50.742;10.864;2023-05-02T00:59:12;38.62;35.36;41.06;;
66747;Laerm;53658;50.742;10.864;2023-05-02T01:02:19;38.62;35.04;42.71;;
66747;Laerm;53658;50.742;10.864;2023-05-02T01:07:36;38.61;35.04;41.75;;
66747;Laerm;53658;50.742;10.864;2023-05-02T01:13:29;38.75;35.66;42.35;;
66747;Laerm;53658;50.742;10.864;2023-05-02T01:15:56;38.86;35.66;43.49;;
66747;Laerm;53658;50.742;10.864;2023-05-02T01:18:29;38.81;35.66;43.39;;
66747;Laerm;53658;50.742;10.864;2023-05-02T01:21:09;38.83;35.36;42.29;;
66747;Laerm;53658;50.742;10.864;2023-05-02T01:23:45;38.87;35.04;42.47;;
66747;Laerm;53658;50.742;10.864;2023-05-02T01:26:31;38.88;35.36;42.59;;
66747;Laerm;53658;50.742;10.864;2023-05-02T01:29:04;38.94;35.66;42.93;;
66747;Laerm;53658;50.742;10.864;2023-05-02T01:31:34;38.95;35.36;42.47;;
66747;Laerm;53658;50.742;10.864;2023-05-02T01:34:04;39.00;35.66;42.65;;
66747;Laerm;53658;50.742;10.864;2023-05-02T01:36:32;39.00;35.66;42.35;;
66747;Laerm;53658;50.742;10.864;2023-05-02T01:39:00;39.04;35.59;42.16;;
66747;Laerm;53658;50.742;10.864;2023-05-02T01:41:30;39.03;35.04;43.64;;
66747;Laerm;53658;50.742;10.864;2023-05-02T01:43:58;39.02;35.66;48.99;;
66747;Laerm;53658;50.742;10.864;2023-05-02T01:46:30;38.96;35.66;52.32;;
66747;Laerm;53658;50.742;10.864;2023-05-02T01:49:01;39.01;35.66;51.88;;
66747;Laerm;53658;50.742;10.864;2023-05-02T01:51:32;38.98;35.66;43.77;;
66747;Laerm;53658;50.742;10.864;2023-05-02T01:54:03;38.94;36.20;43.24;;
66747;Laerm;53658;50.742;10.864;2023-05-02T01:56:33;38.95;35.36;43.81;;
66747;Laerm;53658;50.742;10.864;2023-05-02T01:59:03;38.99;35.36;44.15;;
66747;Laerm;53658;50.742;10.864;2023-05-02T02:01:30;38.98;35.36;49.12;;
66747;Laerm;53658;50.742;10.864;2023-05-02T02:03:59;39.00;36.20;48.10;;
66747;Laerm;53658;50.742;10.864;2023-05-02T02:06:26;39.03;35.36;49.58;;
66747;Laerm;53658;50.742;10.864;2023-05-02T02:08:53;38.99;35.94;48.02;;
66747;Laerm;53658;50.742;10.864;2023-05-02T02:11:33;39.00;35.66;44.51;;
66747;Laerm;53658;50.742;10.864;2023-05-02T02:14:08;39.06;35.04;45.01;;
66747;Laerm;53658;50.742;10.864;2023-05-02T02:16:40;39.11;35.94;44.31;;
66747;Laerm;53658;50.742;10.864;2023-05-02T02:19:12;39.16;35.66;52.98;;
66747;Laerm;53658;50.742;10.864;2023-05-02T02:21:42;39.06;35.36;46.95;;
66747;Laerm;53658;50.742;10.864;2023-05-02T02:24:09;39.03;35.01;48.12;;
66747;Laerm;53658;50.742;10.864;2023-05-02T02:26:36;39.05;35.36;57.74;;
66747;Laerm;53658;50.742;10.864;2023-05-02T02:29:03;38.97;35.94;42.22;;
66747;Laerm;53658;50.742;10.864;2023-05-02T02:31:33;38.95;35.04;42.16;;
66747;Laerm;53658;50.742;10.864;2023-05-02T02:34:01;40.59;36.20;71.69;;
66747;Laerm;53658;50.742;10.864;2023-05-02T02:42:18;38.92;35.94;41.96;;
66747;Laerm;53658;50.742;10.864;2023-05-02T02:44:44;38.98;35.94;41.68;;
66747;Laerm;53658;50.742;10.864;2023-05-02T02:47:22;39.02;35.66;54.23;;
66747;Laerm;53658;50.742;10.864;2023-05-02T02:50:19;38.82;35.66;43.37;;
66747;Laerm;53658;50.742;10.864;2023-05-02T02:53:03;38.93;35.36;49.14;;
66747;Laerm;53658;50.742;10.864;2023-05-02T02:55:52;38.99;34.69;57.95;;
66747;Laerm;53658;50.742;10.864;2023-05-02T03:00:56;38.99;35.04;41.30;;
66747;Laerm;53658;50.742;10.864;2023-05-02T03:03:31;38.92;35.66;41.53;;
66747;Laerm;53658;50.742;10.864;2023-05-02T03:05:58;38.97;35.36;41.46;;
66747;Laerm;53658;50.742;10.864;2023-05-02T03:08:24;39.02;35.36;41.46;;
66747;Laerm;53658;50.742;10.864;2023-05-02T03:10:50;38.97;35.66;41.46;;
66747;Laerm;53658;50.742;10.864;2023-05-02T03:13:17;39.02;35.66;47.02;;
66747;Laerm;53658;50.742;10.864;2023-05-02T03:18:25;38.97;35.36;43.04;;
66747;Laerm;53658;50.742;10.864;2023-05-02T03:20:52;38.94;35.94;41.22;;
66747;Laerm;53658;50.742;10.864;2023-05-02T03:23:18;38.96;36.20;41.22;;
66747;Laerm;53658;50.742;10.864;2023-05-02T03:25:43;38.93;35.66;46.62;;
66747;Laerm;53658;50.742;10.864;2023-05-02T03:28:14;38.85;35.86;45.04;;
66747;Laerm;53658;50.742;10.864;2023-05-02T03:30:43;38.81;35.66;41.38;;
66747;Laerm;53658;50.742;10.864;2023-05-02T03:33:09;38.83;35.36;41.14;;
66747;Laerm;53658;50.742;10.864;2023-05-02T03:35:36;38.77;35.59;42.22;;
66747;Laerm;53658;50.742;10.864;2023-05-02T03:38:02;38.84;35.36;42.82;;
66747;Laerm;53658;50.742;10.864;2023-05-02T03:40:28;38.94;35.66;41.68;;
66747;Laerm;53658;50.742;10.864;2023-05-02T03:42:55;39.06;35.94;42.22;;
66747;Laerm;53658;50.742;10.864;2023-05-02T03:45:27;38.96;35.04;42.59;;
66747;Laerm;53658;50.742;10.864;2023-05-02T03:47:54;39.00;35.66;46.38;;
66747;Laerm;53658;50.742;10.864;2023-05-02T03:50:21;38.95;35.94;41.82;;
66747;Laerm;53658;50.742;10.864;2023-05-02T03:52:49;38.93;35.94;41.53;;
66747;Laerm;53658;50.742;10.864;2023-05-02T03:55:20;39.03;35.66;42.03;;
66747;Laerm;53658;50.742;10.864;2023-05-02T03:57:47;39.08;35.36;42.35;;
66747;Laerm;53658;50.742;10.864;2023-05-02T04:00:13;39.10;35.66;42.41;;
66747;Laerm;53658;50.742;10.864;2023-05-02T04:02:46;39.05;35.36;41.75;;
66747;Laerm;53658;50.742;10.864;2023-05-02T04:05:16;38.98;35.66;42.82;;
66747;Laerm;53658;50.742;10.864;2023-05-02T04:07:43;38.93;36.20;42.09;;
66747;Laerm;53658;50.742;10.864;2023-05-02T04:10:09;39.02;35.66;42.16;;
66747;Laerm;53658;50.742;10.864;2023-05-02T04:12:43;39.00;35.36;42.65;;
66747;Laerm;53658;50.742;10.864;2023-05-02T04:15:10;39.03;35.94;44.07;;
66747;Laerm;53658;50.742;10.864;2023-05-02T04:17:36;39.01;35.66;42.22;;
66747;Laerm;53658;50.742;10.864;2023-05-02T04:20:04;39.06;35.94;42.16;;
66747;Laerm;53658;50.742;10.864;2023-05-02T04:22:32;39.08;35.36;41.68;;
66747;Laerm;53658;50.742;10.864;2023-05-02T04:25:02;39.10;36.20;42.03;;
66747;Laerm;53658;50.742;10.864;2023-05-02T04:27:29;39.18;36.45;42.09;;
66747;Laerm;53658;50.742;10.864;2023-05-02T04:29:56;39.17;35.94;42.22;;
66747;Laerm;53658;50.742;10.864;2023-05-02T04:32:22;39.14;35.94;43.49;;
66747;Laerm;53658;50.742;10.864;2023-05-02T04:34:49;39.04;35.94;41.82;;
66747;Laerm;53658;50.742;10.864;2023-05-02T04:37:17;39.03;35.94;42.47;;
66747;Laerm;53658;50.742;10.864;2023-05-02T04:39:44;39.02;35.66;41.68;;
66747;Laerm;53658;50.742;10.864;2023-05-02T04:42:16;39.13;35.94;42.22;;
66747;Laerm;53658;50.742;10.864;2023-05-02T04:44:50;39.20;36.45;42.16;;
66747;Laerm;53658;50.742;10.864;2023-05-02T04:47:16;39.13;35.94;41.38;;
66747;Laerm;53658;50.742;10.864;2023-05-02T04:49:44;39.22;36.45;46.48;;
66747;Laerm;53658;50.742;10.864;2023-05-02T04:52:10;39.17;36.10;41.38;;
66747;Laerm;53658;50.742;10.864;2023-05-02T04:54:36;39.16;36.20;41.61;;
66747;Laerm;53658;50.742;10.864;2023-05-02T04:57:02;39.14;36.20;41.89;;
66747;Laerm;53658;50.742;10.864;2023-05-02T04:59:33;39.07;35.66;41.96;;
66747;Laerm;53658;50.742;10.864;2023-05-02T05:02:00;39.21;35.66;43.14;;
66747;Laerm;53658;50.742;10.864;2023-05-02T05:04:28;39.27;36.20;44.54;;
66747;Laerm;53658;50.742;10.864;2023-05-02T05:06:53;39.34;36.69;43.14;;
66747;Laerm;53658;50.742;10.864;2023-05-02T05:09:20;39.31;36.45;42.09;;
66747;Laerm;53658;50.742;10.864;2023-05-02T05:11:47;39.32;36.45;43.90;;
66747;Laerm;53658;50.742;10.864;2023-05-02T05:14:14;39.22;36.45;45.54;;
66747;Laerm;53658;50.742;10.864;2023-05-02T05:16:42;39.27;36.45;42.53;;
66747;Laerm;53658;50.742;10.864;2023-05-02T05:19:08;39.27;36.69;44.65;;
66747;Laerm;53658;50.742;10.864;2023-05-02T05:21:34;39.19;35.94;42.71;;
66747;Laerm;53658;50.742;10.864;2023-05-02T05:24:02;39.26;36.69;44.90;;
66747;Laerm;53658;50.742;10.864;2023-05-02T05:26:28;39.26;36.45;41.30;;
66747;Laerm;53658;50.742;10.864;2023-05-02T05:28:54;39.22;36.91;41.75;;
66747;Laerm;53658;50.742;10.864;2023-05-02T05:31:23;39.22;35.94;43.14;;
66747;Laerm;53658;50.742;10.864;2023-05-02T05:33:53;39.28;36.45;41.30;;
66747;Laerm;53658;50.742;10.864;2023-05-02T05:36:20;39.28;36.69;41.14;;
66747;Laerm;53658;50.742;10.864;2023-05-02T05:38:47;39.29;36.69;41.14;;
66747;Laerm;53658;50.742;10.864;2023-05-02T05:41:13;39.33;36.91;42.90;;
66747;Laerm;53658;50.742;10.864;2023-05-02T05:43:44;39.39;36.69;49.14;;
66747;Laerm;53658;50.742;10.864;2023-05-02T05:46:09;39.38;37.12;46.20;;
66747;Laerm;53658;50.742;10.864;2023-05-02T05:48:36;39.37;36.91;44.76;;
66747;Laerm;53658;50.742;10.864;2023-05-02T05:51:06;39.39;36.69;50.86;;
66747;Laerm;53658;50.742;10.864;2023-05-02T05:53:32;39.41;36.91;49.10;;
66747;Laerm;53658;50.742;10.864;2023-05-02T05:56:11;39.52;36.69;54.20;;
66747;Laerm;53658;50.742;10.864;2023-05-02T05:58:41;39.63;36.69;59.37;;
66747;Laerm;53658;50.742;10.864;2023-05-02T06:01:11;39.58;36.91;54.21;;
66747;Laerm;53658;50.742;10.864;2023-05-02T06:03:37;39.51;37.12;43.90;;
66747;Laerm;53658;50.742;10.864;2023-05-02T06:06:03;39.51;36.91;56.11;;
66747;Laerm;53658;50.742;10.864;2023-05-02T06:08:29;39.52;36.69;44.80;;
66747;Laerm;53658;50.742;10.864;2023-05-02T06:10:55;39.55;37.32;49.25;;
66747;Laerm;53658;50.742;10.864;2023-05-02T06:13:21;39.52;37.52;42.03;;
66747;Laerm;53658;50.742;10.864;2023-05-02T06:15:48;39.53;37.52;44.31;;
66747;Laerm;53658;50.742;10.864;2023-05-02T06:18:14;39.51;36.91;41.38;;
66747;Laerm;53658;50.742;10.864;2023-05-02T06:20:41;39.53;37.12;41.38;;
66747;Laerm;53658;50.742;10.864;2023-05-02T06:23:07;39.57;36.69;43.24;;
66747;Laerm;53658;50.742;10.864;2023-05-02T06:25:36;39.57;37.52;42.98;;
66747;Laerm;53658;50.742;10.864;2023-05-02T06:28:02;39.60;37.32;44.31;;
66747;Laerm;53658;50.742;10.864;2023-05-02T06:30:28;39.58;37.12;41.75;;
66747;Laerm;53658;50.742;10.864;2023-05-02T06:32:54;39.62;36.91;45.07;;
66747;Laerm;53658;50.742;10.864;2023-05-02T06:35:20;39.63;37.12;42.09;;
66747;Laerm;53658;50.742;10.864;2023-05-02T06:37:46;39.63;37.32;41.30;;
66747;Laerm;53658;50.742;10.864;2023-05-02T06:40:12;39.63;37.52;41.82;;
66747;Laerm;53658;50.742;10.864;2023-05-02T06:42:38;39.64;37.12;41.61;;
66747;Laerm;53658;50.742;10.864;2023-05-02T06:45:06;39.66;37.32;41.46;;
66747;Laerm;53658;50.742;10.864;2023-05-02T06:47:33;39.70;37.32;41.68;;
66747;Laerm;53658;50.742;10.864;2023-05-02T06:49:59;39.70;37.32;41.61;;
66747;Laerm;53658;50.742;10.864;2023-05-02T06:52:24;39.72;37.32;41.68;;
66747;Laerm;53658;50.742;10.864;2023-05-02T06:54:50;39.71;37.12;41.53;;
66747;Laerm;53658;50.742;10.864;2023-05-02T06:57:16;39.69;37.32;41.46;;
66747;Laerm;53658;50.742;10.864;2023-05-02T06:59:42;39.71;37.52;41.38;;
66747;Laerm;53658;50.742;10.864;2023-05-02T07:02:08;39.76;37.52;41.61;;
66747;Laerm;53658;50.742;10.864;2023-05-02T07:04:35;39.79;37.52;41.61;;
66747;Laerm;53658;50.742;10.864;2023-05-02T07:07:01;39.78;37.88;41.53;;
66747;Laerm;53658;50.742;10.864;2023-05-02T07:09:28;39.85;37.52;41.68;;
66747;Laerm;53658;50.742;10.864;2023-05-02T07:11:54;39.94;37.70;41.46;;
66747;Laerm;53658;50.742;10.864;2023-05-02T07:14:20;40.03;38.21;41.89;;
66747;Laerm;53658;50.742;10.864;2023-05-02T07:16:46;40.05;37.70;41.75;;
66747;Laerm;53658;50.742;10.864;2023-05-02T07:19:12;40.01;37.70;41.68;;
66747;Laerm;53658;50.742;10.864;2023-05-02T07:21:38;39.94;37.70;41.68;;
66747;Laerm;53658;50.742;10.864;2023-05-02T07:24:04;39.91;37.52;41.61;;
66747;Laerm;53658;50.742;10.864;2023-05-02T07:26:29;39.91;37.70;41.82;;
66747;Laerm;53658;50.742;10.864;2023-05-02T07:28:55;39.88;37.32;41.68;;
66747;Laerm;53658;50.742;10.864;2023-05-02T07:31:21;39.96;37.88;41.68;;
66747;Laerm;53658;50.742;10.864;2023-05-02T07:33:47;39.97;37.32;41.61;;
66747;Laerm;53658;50.742;10.864;2023-05-02T07:36:12;39.96;37.12;41.61;;
66747;Laerm;53658;50.742;10.864;2023-05-02T07:38:38;39.98;38.05;41.46;;
66747;Laerm;53658;50.742;10.864;2023-05-02T07:41:04;39.98;37.70;41.53;;
66747;Laerm;53658;50.742;10.864;2023-05-02T07:43:30;40.01;37.53;41.68;;
66747;Laerm;53658;50.742;10.864;2023-05-02T07:45:56;39.98;37.88;41.38;;
66747;Laerm;53658;50.742;10.864;2023-05-02T07:48:22;39.97;37.32;41.53;;
66747;Laerm;53658;50.742;10.864;2023-05-02T07:50:48;40.01;37.88;41.53;;
66747;Laerm;53658;50.742;10.864;2023-05-02T07:53:14;39.98;37.88;41.68;;
66747;Laerm;53658;50.742;10.864;2023-05-02T07:55:40;39.98;38.05;41.53;;
66747;Laerm;53658;50.742;10.864;2023-05-02T07:58:06;39.97;37.88;41.68;;
66747;Laerm;53658;50.742;10.864;2023-05-02T08:00:32;39.96;37.88;41.82;;
66747;Laerm;53658;50.742;10.864;2023-05-02T08:02:58;39.96;37.88;41.46;;
66747;Laerm;53658;50.742;10.864;2023-05-02T08:05:24;39.92;37.70;41.68;;
66747;Laerm;53658;50.742;10.864;2023-05-02T08:07:50;39.93;37.52;41.61;;
66747;Laerm;53658;50.742;10.864;2023-05-02T08:10:16;39.95;37.70;41.53;;
66747;Laerm;53658;50.742;10.864;2023-05-02T08:12:42;40.03;37.70;41.61;;
66747;Laerm;53658;50.742;10.864;2023-05-02T08:15:10;40.11;38.21;41.82;;
66747;Laerm;53658;50.742;10.864;2023-05-02T08:17:37;40.16;37.70;41.82;;
66747;Laerm;53658;50.742;10.864;2023-05-02T08:20:03;40.19;38.05;41.82;;
66747;Laerm;53658;50.742;10.864;2023-05-02T08:22:29;40.31;38.21;42.03;;
66747;Laerm;53658;50.742;10.864;2023-05-02T08:24:56;40.15;37.53;43.04;;
66747;Laerm;53658;50.742;10.864;2023-05-02T08:27:22;40.06;36.69;42.03;;
66747;Laerm;53658;50.742;10.864;2023-05-02T08:29:48;40.07;37.70;41.82;;
66747;Laerm;53658;50.742;10.864;2023-05-02T08:32:13;40.18;38.02;42.76;;
66747;Laerm;53658;50.742;10.864;2023-05-02T08:34:39;40.22;38.05;42.82;;
66747;Laerm;53658;50.742;10.864;2023-05-02T08:37:08;40.12;37.52;41.96;;
66747;Laerm;53658;50.742;10.864;2023-05-02T08:39:35;40.12;37.32;41.82;;
66747;Laerm;53658;50.742;10.864;2023-05-02T08:42:05;40.07;38.05;41.82;;
66747;Laerm;53658;50.742;10.864;2023-05-02T08:44:31;40.02;38.05;41.89;;
66747;Laerm;53658;50.742;10.864;2023-05-02T08:46:59;40.03;37.88;41.96;;
66747;Laerm;53658;50.742;10.864;2023-05-02T08:49:29;40.16;38.21;42.13;;
66747;Laerm;53658;50.742;10.864;2023-05-02T08:51:58;40.24;37.88;41.89;;
66747;Laerm;53658;50.742;10.864;2023-05-02T08:54:24;40.27;38.21;42.22;;
66747;Laerm;53658;50.742;10.864;2023-05-02T08:56:53;40.25;37.52;42.93;;
66747;Laerm;53658;50.742;10.864;2023-05-02T08:59:19;40.19;38.05;42.09;;
66747;Laerm;53658;50.742;10.864;2023-05-02T09:01:48;40.20;37.88;42.09;;
66747;Laerm;53658;50.742;10.864;2023-05-02T09:04:23;40.20;38.05;42.65;;
66747;Laerm;53658;50.742;10.864;2023-05-02T09:06:49;40.16;38.05;42.03;;
66747;Laerm;53658;50.742;10.864;2023-05-02T09:09:14;40.18;38.05;41.89;;
66747;Laerm;53658;50.742;10.864;2023-05-02T09:11:41;40.14;37.88;42.03;;
66747;Laerm;53658;50.742;10.864;2023-05-02T09:14:15;40.19;37.88;41.82;;
66747;Laerm;53658;50.742;10.864;2023-05-02T09:16:41;40.25;38.05;42.93;;
66747;Laerm;53658;50.742;10.864;2023-05-02T09:19:08;40.17;37.88;41.89;;
66747;Laerm;53658;50.742;10.864;2023-05-02T09:21:37;40.16;37.52;42.16;;
66747;Laerm;53658;50.742;10.864;2023-05-02T09:24:20;40.15;37.88;41.96;;
66747;Laerm;53658;50.742;10.864;2023-05-02T09:27:03;40.13;37.70;42.16;;
66747;Laerm;53658;50.742;10.864;2023-05-02T09:29:31;40.11;37.52;42.03;;
66747;Laerm;53658;50.742;10.864;2023-05-02T09:32:02;40.04;37.52;41.82;;
66747;Laerm;53658;50.742;10.864;2023-05-02T09:34:28;39.87;36.69;42.03;;
66747;Laerm;53658;50.742;10.864;2023-05-02T09:36:56;39.63;36.10;42.16;;
66747;Laerm;53658;50.742;10.864;2023-05-02T09:39:27;39.38;36.20;41.82;;
66747;Laerm;53658;50.742;10.864;2023-05-02T09:41:54;39.20;35.66;41.89;;
66747;Laerm;53658;50.742;10.864;2023-05-02T09:44:23;39.34;35.36;45.20;;
66747;Laerm;53658;50.742;10.864;2023-05-02T09:46:52;39.27;35.36;44.76;;
66747;Laerm;53658;50.742;10.864;2023-05-02T09:49:41;39.44;36.20;41.53;;
66747;Laerm;53658;50.742;10.864;2023-05-02T09:52:11;39.60;36.91;41.75;;
66747;Laerm;53658;50.742;10.864;2023-05-02T09:54:37;39.54;35.66;41.75;;
66747;Laerm;53658;50.742;10.864;2023-05-02T09:57:03;39.27;35.94;41.82;;
66747;Laerm;53658;50.742;10.864;2023-05-02T09:59:32;38.95;35.94;42.76;;
66747;Laerm;53658;50.742;10.864;2023-05-02T10:02:00;38.61;34.69;41.94;;
66747;Laerm;53658;50.742;10.864;2023-05-02T10:04:27;38.39;32.35;42.35;;
66747;Laerm;53658;50.742;10.864;2023-05-02T10:06:54;38.37;33.90;42.53;;
66747;Laerm;53658;50.742;10.864;2023-05-02T10:09:21;38.13;32.93;41.06;;
66747;Laerm;53658;50.742;10.864;2023-05-02T10:11:52;38.25;34.31;40.89;;
66747;Laerm;53658;50.742;10.864;2023-05-02T10:14:21;38.35;34.31;41.61;;
66747;Laerm;53658;50.742;10.864;2023-05-02T10:16:57;38.40;33.44;41.53;;
66747;Laerm;53658;50.742;10.864;2023-05-02T10:19:29;38.42;33.90;40.98;;
66747;Laerm;53658;50.742;10.864;2023-05-02T10:21:59;39.03;35.31;45.86;;
66747;Laerm;53658;50.742;10.864;2023-05-02T10:24:25;39.31;35.36;43.58;;
66747;Laerm;53658;50.742;10.864;2023-05-02T10:26:52;39.87;36.91;42.98;;
66747;Laerm;53658;50.742;10.864;2023-05-02T10:29:19;39.90;37.70;41.96;;
66747;Laerm;53658;50.742;10.864;2023-05-02T10:31:47;39.59;36.91;41.75;;
66747;Laerm;53658;50.742;10.864;2023-05-02T10:34:15;39.72;36.91;42.09;;
66747;Laerm;53658;50.742;10.864;2023-05-02T10:36:43;39.88;37.70;47.48;;
66747;Laerm;53658;50.742;10.864;2023-05-02T10:39:09;39.94;37.32;43.29;;
66747;Laerm;53658;50.742;10.864;2023-05-02T10:41:38;40.04;37.32;44.45;;
66747;Laerm;53658;50.742;10.864;2023-05-02T10:44:06;40.06;37.52;47.91;;
66747;Laerm;53658;50.742;10.864;2023-05-02T10:46:34;40.23;37.32;45.23;;
66747;Laerm;53658;50.742;10.864;2023-05-02T10:49:11;39.99;36.91;52.84;;
66747;Laerm;53658;50.742;10.864;2023-05-02T10:51:41;40.49;37.52;52.90;;
66747;Laerm;53658;50.742;10.864;2023-05-02T10:59:42;40.22;37.52;53.98;;
66747;Laerm;53658;50.742;10.864;2023-05-02T11:05:03;39.89;37.32;53.62;;
66747;Laerm;53658;50.742;10.864;2023-05-02T11:07:34;39.67;37.12;41.61;;
66747;Laerm;53658;50.742;10.864;2023-05-02T11:12:56;39.78;37.52;41.96;;
66747;Laerm;53658;50.742;10.864;2023-05-02T11:18:12;40.29;37.88;42.71;;
66747;Laerm;53658;50.742;10.864;2023-05-02T11:20:42;40.37;38.05;42.29;;
66747;Laerm;53658;50.742;10.864;2023-05-02T11:26:20;40.29;37.52;42.09;;
66747;Laerm;53658;50.742;10.864;2023-05-02T11:28:47;40.24;37.70;41.89;;
66747;Laerm;53658;50.742;10.864;2023-05-02T11:33:55;40.21;37.88;41.96;;
66747;Laerm;53658;50.742;10.864;2023-05-02T11:36:32;40.17;37.88;42.35;;
66747;Laerm;53658;50.742;10.864;2023-05-02T11:38:59;40.18;37.70;42.16;;
66747;Laerm;53658;50.742;10.864;2023-05-02T11:41:41;40.15;37.32;42.35;;
66747;Laerm;53658;50.742;10.864;2023-05-02T11:44:08;39.95;37.32;41.89;;
66747;Laerm;53658;50.742;10.864;2023-05-02T11:46:38;39.91;37.32;41.75;;
66747;Laerm;53658;50.742;10.864;2023-05-02T11:49:05;39.68;36.69;42.30;;
66747;Laerm;53658;50.742;10.864;2023-05-02T11:51:33;39.22;35.04;41.61;;
66747;Laerm;53658;50.742;10.864;2023-05-02T11:53:59;38.87;34.69;41.26;;
66747;Laerm;53658;50.742;10.864;2023-05-02T11:56:25;38.80;35.36;41.68;;
66747;Laerm;53658;50.742;10.864;2023-05-02T11:58:59;38.68;33.90;41.30;;
66747;Laerm;53658;50.742;10.864;2023-05-02T12:01:25;38.67;34.31;42.53;;
66747;Laerm;53658;50.742;10.864;2023-05-02T12:04:07;38.77;34.31;42.65;;
66747;Laerm;53658;50.742;10.864;2023-05-02T12:06:33;38.57;35.04;41.06;;
66747;Laerm;53658;50.742;10.864;2023-05-02T12:09:13;38.72;33.90;41.30;;
66747;Laerm;53658;50.742;10.864;2023-05-02T12:11:41;38.82;34.69;43.39;;
66747;Laerm;53658;50.742;10.864;2023-05-02T12:14:07;40.04;35.66;54.92;;
66747;Laerm;53658;50.742;10.864;2023-05-02T12:16:33;39.47;35.94;44.27;;
66747;Laerm;53658;50.742;10.864;2023-05-02T12:19:00;39.96;36.91;43.49;;
66747;Laerm;53658;50.742;10.864;2023-05-02T12:21:29;40.08;37.70;43.04;;
66747;Laerm;53658;50.742;10.864;2023-05-02T12:23:59;40.05;38.05;42.16;;
66747;Laerm;53658;50.742;10.864;2023-05-02T12:26:26;40.10;37.88;41.82;;
66747;Laerm;53658;50.742;10.864;2023-05-02T12:28:57;40.14;38.21;42.09;;
66747;Laerm;53658;50.742;10.864;2023-05-02T12:31:24;40.12;37.87;45.17;;
66747;Laerm;53658;50.742;10.864;2023-05-02T12:33:51;39.75;37.52;41.38;;
66747;Laerm;53658;50.742;10.864;2023-05-02T12:36:22;39.84;37.88;43.34;;
66747;Laerm;53658;50.742;10.864;2023-05-02T12:38:52;40.46;36.45;45.46;;
66747;Laerm;53658;50.742;10.864;2023-05-02T12:41:36;40.55;37.35;57.92;;
66747;Laerm;53658;50.742;10.864;2023-05-02T12:44:03;39.73;36.91;42.98;;
66747;Laerm;53658;50.742;10.864;2023-05-02T12:46:30;39.62;36.91;41.38;;
66747;Laerm;53658;50.742;10.864;2023-05-02T12:49:03;39.62;36.69;41.38;;
66747;Laerm;53658;50.742;10.864;2023-05-02T12:51:30;39.66;37.52;47.04;;
66747;Laerm;53658;50.742;10.864;2023-05-02T12:53:57;39.66;36.91;51.16;;
66747;Laerm;53658;50.742;10.864;2023-05-02T12:56:23;39.66;36.69;41.48;;
66747;Laerm;53658;50.742;10.864;2023-05-02T12:58:52;39.71;36.91;41.61;;
66747;Laerm;53658;50.742;10.864;2023-05-02T13:01:18;39.65;37.12;51.21;;
66747;Laerm;53658;50.742;10.864;2023-05-02T13:03:43;39.63;37.12;41.82;;
66747;Laerm;53658;50.742;10.864;2023-05-02T13:06:10;39.88;37.32;55.49;;
66747;Laerm;53658;50.742;10.864;2023-05-02T13:08:36;40.22;37.12;55.48;;
66747;Laerm;53658;50.742;10.864;2023-05-02T13:11:03;39.93;37.52;55.07;;
66747;Laerm;53658;50.742;10.864;2023-05-02T13:13:29;41.40;37.12;54.47;;
66747;Laerm;53658;50.742;10.864;2023-05-02T13:15:55;40.33;37.52;54.48;;
66747;Laerm;53658;50.742;10.864;2023-05-02T13:18:21;39.89;37.70;49.25;;
66747;Laerm;53658;50.742;10.864;2023-05-02T13:20:47;40.17;38.05;43.14;;
66747;Laerm;53658;50.742;10.864;2023-05-02T13:23:13;40.23;37.70;41.89;;
66747;Laerm;53658;50.742;10.864;2023-05-02T13:25:41;40.12;38.05;42.03;;
66747;Laerm;53658;50.742;10.864;2023-05-02T13:28:07;40.03;38.05;41.68;;
66747;Laerm;53658;50.742;10.864;2023-05-02T13:30:33;39.96;38.05;41.46;;
66747;Laerm;53658;50.742;10.864;2023-05-02T13:32:59;39.83;37.32;43.24;;
66747;Laerm;53658;50.742;10.864;2023-05-02T13:35:25;39.90;38.05;41.68;;
66747;Laerm;53658;50.742;10.864;2023-05-02T13:37:51;40.02;38.05;41.75;;
66747;Laerm;53658;50.742;10.864;2023-05-02T13:40:17;40.18;38.21;42.03;;
66747;Laerm;53658;50.742;10.864;2023-05-02T13:42:43;40.08;38.05;41.61;;
66747;Laerm;53658;50.742;10.864;2023-05-02T13:45:09;40.01;38.02;41.68;;
66747;Laerm;53658;50.742;10.864;2023-05-02T13:47:35;40.02;38.21;41.75;;
66747;Laerm;53658;50.742;10.864;2023-05-02T13:50:01;40.00;37.88;41.61;;
66747;Laerm;53658;50.742;10.864;2023-05-02T13:52:27;39.94;37.70;41.68;;
66747;Laerm;53658;50.742;10.864;2023-05-02T13:54:53;39.88;37.70;41.53;;
66747;Laerm;53658;50.742;10.864;2023-05-02T13:57:19;39.88;37.52;42.47;;
66747;Laerm;53658;50.742;10.864;2023-05-02T13:59:45;39.87;37.70;41.53;;
66747;Laerm;53658;50.742;10.864;2023-05-02T14:02:11;39.84;37.32;41.53;;
66747;Laerm;53658;50.742;10.864;2023-05-02T14:04:37;39.85;37.70;41.61;;
66747;Laerm;53658;50.742;10.864;2023-05-02T14:07:03;39.84;37.12;41.53;;
66747;Laerm;53658;50.742;10.864;2023-05-02T14:09:29;39.83;37.32;43.94;;
66747;Laerm;53658;50.742;10.864;2023-05-02T14:11:55;39.80;37.52;43.14;;
66747;Laerm;53658;50.742;10.864;2023-05-02T14:14:23;39.80;37.32;47.24;;